首页
METAR-TAF:

METAR-TAF

机场 :

贾特拉帕蒂·希瓦吉国际机场

孟买, 印度

纬度: 19-07N, 经度: 072-51E, 海拔: 8米

当前天气观测

该预报发布于38分钟前的13:30 UTC
风速5节,风向西南
温度 29°C
湿度 74%
气压 1005 hPa
能見度: 3000
少量云层高于2000英尺
散云层高于2500英尺
少量云层高于3000英尺, 积雨云.
多云层高于10000英尺
轻雾,

METAR: VABB 171330Z 23005KT 3000 BR FEW020 SCT025 FEW030CB BKN100 29/24 Q1005 NOSIG

时间: 19:38 (14:08 UTC)

预报

该预报发布于3小时和8分钟前的11:00 UTC
预报有效从17日的 12点(UTC)到 17日的 21点(UTC)
风速8节,风向西南
能見度: 3000
散云层高于2000英尺
少量云层高于2500英尺, 塔状积云.
多云层高于10000英尺
霾, 小雨
短暂存在
从 17日的 12点(UTC)到 17日的 18点(UTC)
风速10节,风向东北,有时为20节阵风
能見度: 1500
少量云层高于1800英尺
散云层高于2500英尺
少量云层高于3000英尺, 积雨云.
多云层高于9000英尺
雷暴, 雨, 阵雨
成为
从 17日的 18点(UTC)到 17日的 20点(UTC)
风速5节,风向
能見度: 2500
霾, 小雨,

TAF: VABB 171100Z 1712/1721 23008KT 3000 HZ -RA SCT020 FEW025TCU BKN100 TEMPO 1712/1718 05010G20KT 1500 TSRA SHRA FEW018 SCT025 FEW030CB BKN090 BECMG 1718/1720 17005KT 2500 HZ -RA

超过4000个机场的气象观测和天气预报(METAR&TAF报告)。

可查询的气象台以黄色和红色小点在地图上表示。

将鼠标移到小点上方,可查看气象台名称。

然后点击查看天气观测和预报。

如需切换地图:点击带黑十字的绿色按钮放大地图;点击带横线的绿色按钮缩小地图;或者点击绿色箭头查看邻近地区的地图。


METAR-TAF: